Time,TemperatureF,DewpointF,PressureIn,WindDirection,WindDirectionDegrees,WindSpeedMPH,WindSpeedGustMPH,Humidity,HourlyPrecipIn,Conditions,Clouds,dailyrainin,SoftwareType,DateUTC
2013-01-18 00:02:00,11.3,0.5,30.18,NW,318,0.0,4.0,61,0.00,,,0.00,meteohub,2013-01-18 05:02:00,
2013-01-18 00:03:00,11.3,0.1,30.19,NW,323,2.0,4.0,60,0.00,,,0.00,meteohub,2013-01-18 05:03:00,
2013-01-18 00:08:00,11.1,0.0,30.20,NW,316,0.0,4.0,60,0.00,,,0.00,meteohub,2013-01-18 05:08:00,
2013-01-18 00:14:00,11.1,0.7,30.20,NW,316,0.0,2.0,62,0.00,,,0.00,meteohub,2013-01-18 05:14:00,
2013-01-18 00:19:00,10.9,1.4,30.21,East,91,0.0,2.0,65,0.00,,,0.00,meteohub,2013-01-18 05:19:00,
2013-01-18 00:24:00,10.8,2.3,30.21,East,91,0.0,2.0,68,0.00,,,0.00,meteohub,2013-01-18 05:24:00,
2013-01-18 00:29:00,10.8,2.8,30.22,East,91,0.0,2.0,70,0.00,,,0.00,meteohub,2013-01-18 05:29:00,
2013-01-18 00:34:00,10.6,2.7,30.21,East,91,0.0,2.0,70,0.00,,,0.00,meteohub,2013-01-18 05:34:00,
2013-01-18 00:39:00,10.2,2.7,30.21,East,91,2.0,2.0,71,0.00,,,0.00,meteohub,2013-01-18 05:39:00,
2013-01-18 00:44:00,10.0,2.3,30.21,North,0,0.0,2.0,70,0.00,,,0.00,meteohub,2013-01-18 05:44:00,
2013-01-18 00:49:00,10.0,2.5,30.21,NE,49,0.0,2.0,71,0.00,,,0.00,meteohub,2013-01-18 05:49:00,
2013-01-18 00:54:00,9.9,2.3,30.21,WNW,282,0.0,2.0,71,0.00,,,0.00,meteohub,2013-01-18 05:54:00,
2013-01-18 00:59:00,9.7,2.1,30.22,NNE,21,0.0,4.0,71,0.00,,,0.00,meteohub,2013-01-18 05:59:00,
2013-01-18 01:04:00,9.7,2.1,30.21,NNW,332,0.0,4.0,71,0.00,,,0.00,meteohub,2013-01-18 06:04:00,
2013-01-18 01:09:00,9.5,1.9,30.22,NNW,333,0.0,4.0,71,0.00,,,0.00,meteohub,2013-01-18 06:09:00,
2013-01-18 01:14:00,9.3,1.8,30.21,NNW,337,1.0,3.0,71,0.00,,,0.00,meteohub,2013-01-18 06:14:00,
2013-01-18 01:19:00,9.3,2.1,30.21,South,170,0.0,3.0,72,0.00,,,0.00,meteohub,2013-01-18 06:19:00,
2013-01-18 01:24:00,9.1,1.9,30.21,East,93,0.0,3.0,72,0.00,,,0.00,meteohub,2013-01-18 06:24:00,
2013-01-18 01:29:00,9.1,1.9,30.22,East,93,0.0,3.0,72,0.00,,,0.00,meteohub,2013-01-18 06:29:00,
2013-01-18 01:34:00,9.0,1.8,30.22,NW,319,0.0,2.0,72,0.00,,,0.00,meteohub,2013-01-18 06:34:00,
2013-01-18 01:39:00,9.0,1.4,30.21,ESE,107,0.0,2.0,71,0.00,,,0.00,meteohub,2013-01-18 06:39:00,
2013-01-18 01:44:00,8.8,1.2,30.22,NNW,333,1.0,2.0,71,0.00,,,0.00,meteohub,2013-01-18 06:44:00,
2013-01-18 01:49:00,8.6,0.9,30.22,North,350,0.0,2.0,70,0.00,,,0.00,meteohub,2013-01-18 06:49:00,
2013-01-18 01:54:00,8.4,0.3,30.22,North,350,0.0,3.0,69,0.00,,,0.00,meteohub,2013-01-18 06:54:00,
2013-01-18 01:59:00,8.4,0.7,30.23,NE,51,0.0,3.0,70,0.00,,,0.00,meteohub,2013-01-18 06:59:00,
2013-01-18 02:04:00,8.4,0.3,30.24,NNW,338,0.0,2.0,69,0.00,,,0.00,meteohub,2013-01-18 07:04:00,
2013-01-18 02:09:00,8.2,0.1,30.25,NNW,338,0.0,3.0,69,0.00,,,0.00,meteohub,2013-01-18 07:09:00,
2013-01-18 02:14:00,8.2,0.1,30.25,NNW,338,0.0,3.0,69,0.00,,,0.00,meteohub,2013-01-18 07:14:00,
2013-01-18 02:19:00,8.1,0.3,30.23,NNW,338,0.0,3.0,70,0.00,,,0.00,meteohub,2013-01-18 07:19:00,
2013-01-18 02:24:00,7.9,0.1,30.25,NNW,338,0.0,1.0,70,0.00,,,0.00,meteohub,2013-01-18 07:24:00,
2013-01-18 02:29:00,7.9,0.1,30.27,NNW,338,0.0,1.0,70,0.00,,,0.00,meteohub,2013-01-18 07:29:00,
2013-01-18 02:34:00,7.7,0.3,30.26,NNW,338,0.0,1.0,71,0.00,,,0.00,meteohub,2013-01-18 07:34:00,
2013-01-18 02:39:00,7.5,0.1,30.26,NNW,338,0.0,1.0,71,0.00,,,0.00,meteohub,2013-01-18 07:39:00,
2013-01-18 02:44:00,6.3,-1.5,30.26,ENE,70,1.0,0.0,70,0.00,,,0.00,meteohub,2013-01-18 07:44:00,
2013-01-18 02:49:00,6.1,-1.8,30.26,NNW,341,0.0,0.0,69,0.00,,,0.00,meteohub,2013-01-18 07:49:00,
2013-01-18 02:54:00,6.1,-2.6,30.26,NNW,341,1.0,4.0,67,0.00,,,0.00,meteohub,2013-01-18 07:54:00,
2013-01-18 02:59:00,5.7,-2.9,30.26,NNW,341,1.0,4.0,67,0.00,,,0.00,meteohub,2013-01-18 07:59:00,
2013-01-18 03:04:00,5.7,-2.9,30.26,NNW,341,0.0,4.0,67,0.00,,,0.00,meteohub,2013-01-18 08:04:00,
2013-01-18 03:09:00,5.7,-3.1,30.26,NNW,341,3.0,3.0,66,0.00,,,0.00,meteohub,2013-01-18 08:09:00,
2013-01-18 03:14:00,5.5,-3.3,30.25,NNW,341,1.0,4.0,66,0.00,,,0.00,meteohub,2013-01-18 08:14:00,
2013-01-18 03:19:00,5.5,-3.1,30.26,North,5,2.0,4.0,67,0.00,,,0.00,meteohub,2013-01-18 08:19:00,
2013-01-18 03:24:00,5.7,-2.6,30.27,North,5,2.0,4.0,68,0.00,,,0.00,meteohub,2013-01-18 08:24:00,
2013-01-18 03:30:00,5.7,-2.6,30.26,North,5,3.0,4.0,68,0.00,,,0.00,meteohub,2013-01-18 08:30:00,
2013-01-18 03:35:00,6.1,-1.8,30.25,North,9,2.0,4.0,69,0.00,,,0.00,meteohub,2013-01-18 08:35:00,
2013-01-18 03:40:00,6.1,-1.8,30.25,North,5,3.0,4.0,69,0.00,,,0.00,meteohub,2013-01-18 08:40:00,
2013-01-18 03:45:00,6.1,-1.8,30.25,North,5,1.0,4.0,69,0.00,,,0.00,meteohub,2013-01-18 08:45:00,
2013-01-18 03:50:00,6.1,-1.7,30.26,North,5,2.0,4.0,70,0.00,,,0.00,meteohub,2013-01-18 08:50:00,
2013-01-18 03:55:00,6.1,-1.7,30.26,North,5,0.0,4.0,70,0.00,,,0.00,meteohub,2013-01-18 08:55:00,
2013-01-18 04:00:00,5.9,-1.8,30.26,North,5,0.0,3.0,70,0.00,,,0.00,meteohub,2013-01-18 09:00:00,
2013-01-18 04:05:00,5.5,-1.8,30.25,North,5,0.0,3.0,71,0.00,,,0.00,meteohub,2013-01-18 09:05:00,
2013-01-18 04:10:00,5.4,-2.0,30.26,North,5,1.0,3.0,71,0.00,,,0.00,meteohub,2013-01-18 09:10:00,
2013-01-18 04:15:00,5.2,-2.4,30.27,NNW,345,1.0,3.0,70,0.00,,,0.00,meteohub,2013-01-18 09:15:00,
2013-01-18 04:20:00,5.2,-3.1,30.27,NNW,345,1.0,4.0,68,0.00,,,0.00,meteohub,2013-01-18 09:20:00,
2013-01-18 04:25:00,5.0,-3.3,30.27,NNW,345,0.0,4.0,68,0.00,,,0.00,meteohub,2013-01-18 09:25:00,
2013-01-18 04:30:00,3.9,-4.0,30.27,NNW,345,0.0,3.0,69,0.00,,,0.00,meteohub,2013-01-18 09:30:00,
2013-01-18 04:35:00,3.2,-4.4,30.28,NNW,345,2.0,3.0,70,0.00,,,0.00,meteohub,2013-01-18 09:35:00,
2013-01-18 04:40:00,3.2,-4.4,30.29,NNW,345,1.0,3.0,70,0.00,,,0.00,meteohub,2013-01-18 09:40:00,
2013-01-18 04:45:00,2.5,-4.7,30.29,NNW,345,1.0,3.0,71,0.00,,,0.00,meteohub,2013-01-18 09:45:00,
2013-01-18 04:50:00,2.3,-4.0,30.29,NNW,345,1.0,3.0,74,0.00,,,0.00,meteohub,2013-01-18 09:50:00,
2013-01-18 04:55:00,2.7,-3.5,30.30,NNW,345,1.0,3.0,75,0.00,,,0.00,meteohub,2013-01-18 09:55:00,
2013-01-18 05:00:00,2.7,-3.5,30.30,NNW,345,1.0,3.0,75,0.00,,,0.00,meteohub,2013-01-18 10:00:00,
2013-01-18 05:05:00,2.7,-3.5,30.30,NNW,345,2.0,3.0,75,0.00,,,0.00,meteohub,2013-01-18 10:05:00,
2013-01-18 05:10:00,3.0,-2.7,30.30,NNW,345,2.0,4.0,76,0.00,,,0.00,meteohub,2013-01-18 10:10:00,
2013-01-18 05:15:00,3.4,-2.7,30.30,NNW,345,0.0,4.0,75,0.00,,,0.00,meteohub,2013-01-18 10:15:00,
2013-01-18 05:20:00,1.9,-2.7,30.31,NNW,338,0.0,4.0,80,0.00,,,0.00,meteohub,2013-01-18 10:20:00,
2013-01-18 05:25:00,1.8,-2.7,30.31,NNW,338,0.0,3.0,81,0.00,,,0.00,meteohub,2013-01-18 10:25:00,
2013-01-18 05:30:00,1.9,-2.2,30.30,NNW,338,0.0,2.0,82,0.00,,,0.00,meteohub,2013-01-18 10:30:00,
2013-01-18 05:35:00,1.9,-2.2,30.31,NNW,338,0.0,1.0,82,0.00,,,0.00,meteohub,2013-01-18 10:35:00,
2013-01-18 05:40:00,1.9,-2.0,30.31,NNW,338,0.0,1.0,83,0.00,,,0.00,meteohub,2013-01-18 10:40:00,
2013-01-18 05:45:00,1.6,-2.9,30.31,NNW,338,0.0,1.0,81,0.00,,,0.00,meteohub,2013-01-18 10:45:00,
2013-01-18 05:50:00,1.2,-2.9,30.32,NNW,338,0.0,1.0,82,0.00,,,0.00,meteohub,2013-01-18 10:50:00,
2013-01-18 05:55:00,0.9,-3.3,30.32,NNW,338,0.0,1.0,82,0.00,,,0.00,meteohub,2013-01-18 10:55:00,
2013-01-18 06:00:00,0.5,-3.5,30.33,NNW,338,1.0,1.0,83,0.00,,,0.00,meteohub,2013-01-18 11:00:00,
2013-01-18 06:05:00,0.1,-3.8,30.33,NNW,338,0.0,1.0,83,0.00,,,0.00,meteohub,2013-01-18 11:05:00,
2013-01-18 06:10:00,0.1,-3.5,30.34,NNW,338,0.0,1.0,84,0.00,,,0.00,meteohub,2013-01-18 11:10:00,
2013-01-18 06:15:00,0.5,-2.9,30.34,NNW,338,0.0,2.0,85,0.00,,,0.00,meteohub,2013-01-18 11:15:00,
2013-01-18 06:20:00,0.9,-2.6,30.35,NNW,338,0.0,2.0,85,0.00,,,0.00,meteohub,2013-01-18 11:20:00,
2013-01-18 06:25:00,1.0,-2.2,30.35,NNE,26,1.0,2.0,86,0.00,,,0.00,meteohub,2013-01-18 11:25:00,
2013-01-18 06:30:00,1.2,-2.2,30.36,NNE,26,0.0,1.0,85,0.00,,,0.00,meteohub,2013-01-18 11:30:00,
2013-01-18 06:35:00,1.4,-2.4,30.36,NNE,26,0.0,1.0,84,0.00,,,0.00,meteohub,2013-01-18 11:35:00,
2013-01-18 06:40:00,1.6,-2.4,30.36,NE,42,0.0,2.0,83,0.00,,,0.00,meteohub,2013-01-18 11:40:00,
2013-01-18 06:45:00,1.6,-2.6,30.37,NE,42,0.0,2.0,82,0.00,,,0.00,meteohub,2013-01-18 11:45:00,
2013-01-18 06:50:00,1.6,-2.9,30.37,ENE,66,0.0,2.0,81,0.00,,,0.00,meteohub,2013-01-18 11:50:00,
2013-01-18 06:56:00,1.6,-3.1,30.37,ENE,66,0.0,1.0,80,0.00,,,0.00,meteohub,2013-01-18 11:56:00,
2013-01-18 07:01:00,1.6,-3.5,30.37,ENE,66,0.0,1.0,79,0.00,,,0.00,meteohub,2013-01-18 12:01:00,
2013-01-18 07:06:00,1.2,-3.8,30.37,ENE,66,0.0,1.0,79,0.00,,,0.00,meteohub,2013-01-18 12:06:00,
2013-01-18 07:11:00,1.0,-4.0,30.37,ENE,66,0.0,2.0,79,0.00,,,0.00,meteohub,2013-01-18 12:11:00,
2013-01-18 07:16:00,1.0,-4.0,30.38,ENE,66,0.0,2.0,79,0.00,,,0.00,meteohub,2013-01-18 12:16:00,
2013-01-18 07:21:00,0.9,-4.2,30.38,ENE,66,0.0,2.0,79,0.00,,,0.00,meteohub,2013-01-18 12:21:00,
2013-01-18 07:26:00,0.7,-4.4,30.39,ENE,66,0.0,1.0,79,0.00,,,0.00,meteohub,2013-01-18 12:26:00,
2013-01-18 07:31:00,0.1,-4.9,30.39,ENE,66,0.0,1.0,79,0.00,,,0.00,meteohub,2013-01-18 12:31:00,
2013-01-18 07:36:00,0.0,-4.7,30.39,ENE,66,0.0,1.0,80,0.00,,,0.00,meteohub,2013-01-18 12:36:00,
2013-01-18 07:41:00,-0.2,-4.9,30.40,ENE,66,0.0,1.0,80,0.00,,,0.00,meteohub,2013-01-18 12:41:00,
2013-01-18 07:46:00,0.1,-4.4,30.40,ENE,66,0.0,1.0,81,0.00,,,0.00,meteohub,2013-01-18 12:46:00,
2013-01-18 07:51:00,0.7,-4.0,30.40,ENE,66,0.0,1.0,80,0.00,,,0.00,meteohub,2013-01-18 12:51:00,
2013-01-18 07:56:00,1.4,-3.6,30.41,ENE,66,0.0,2.0,79,0.00,,,0.00,meteohub,2013-01-18 12:56:00,
2013-01-18 08:01:00,2.1,-3.5,30.42,NE,35,0.0,2.0,77,0.00,,,0.00,meteohub,2013-01-18 13:01:00,
2013-01-18 08:06:00,2.8,-3.6,30.42,North,5,0.0,2.0,74,0.00,,,0.00,meteohub,2013-01-18 13:06:00,
2013-01-18 08:11:00,3.6,-3.5,30.42,NNE,19,0.0,2.0,72,0.00,,,0.00,meteohub,2013-01-18 13:11:00,
2013-01-18 08:16:00,4.3,-3.6,30.43,NW,304,0.0,2.0,69,0.00,,,0.00,meteohub,2013-01-18 13:16:00,
2013-01-18 08:21:00,4.6,-3.8,30.42,WNW,282,0.0,3.0,67,0.00,,,0.00,meteohub,2013-01-18 13:21:00,
2013-01-18 08:26:00,4.8,-3.6,30.43,NW,306,0.0,6.0,67,0.00,,,0.00,meteohub,2013-01-18 13:26:00,
2013-01-18 08:31:00,5.4,-3.3,30.43,North,355,0.0,6.0,67,0.00,,,0.00,meteohub,2013-01-18 13:31:00,
2013-01-18 08:36:00,5.7,-2.9,30.43,NNE,30,1.0,4.0,67,0.00,,,0.00,meteohub,2013-01-18 13:36:00,
2013-01-18 08:41:00,5.9,-2.7,30.43,NNW,342,2.0,4.0,67,0.00,,,0.00,meteohub,2013-01-18 13:41:00,
2013-01-18 08:46:00,6.1,-2.6,30.44,NW,315,2.0,6.0,67,0.00,,,0.00,meteohub,2013-01-18 13:46:00,
2013-01-18 08:51:00,6.4,-2.2,30.44,East,87,0.0,6.0,67,0.00,,,0.00,meteohub,2013-01-18 13:51:00,
2013-01-18 08:56:00,6.8,-1.8,30.45,WNW,290,1.0,6.0,67,0.00,,,0.00,meteohub,2013-01-18 13:56:00,
2013-01-18 09:01:00,7.0,-2.0,30.45,NW,314,3.0,5.0,66,0.00,,,0.00,meteohub,2013-01-18 14:01:00,
2013-01-18 09:06:00,7.0,-2.4,30.45,WNW,283,3.0,8.0,65,0.00,,,0.00,meteohub,2013-01-18 14:06:00,
2013-01-18 09:11:00,7.2,-2.4,30.45,NW,304,6.0,8.0,64,0.00,,,0.00,meteohub,2013-01-18 14:11:00,
2013-01-18 09:16:00,7.2,-2.7,30.45,WNW,292,3.0,9.0,63,0.00,,,0.00,meteohub,2013-01-18 14:16:00,
2013-01-18 09:21:00,4.6,-5.3,30.46,WNW,288,8.0,13.0,63,0.00,,,0.00,meteohub,2013-01-18 14:21:00,
2013-01-18 09:26:00,4.6,-5.4,30.46,West,279,7.0,16.0,62,0.00,,,0.00,meteohub,2013-01-18 14:26:00,
2013-01-18 09:31:00,5.0,-3.3,30.46,West,275,8.0,16.0,68,0.00,,,0.00,meteohub,2013-01-18 14:31:00,
2013-01-18 09:36:00,5.2,-5.6,30.46,West,268,5.0,14.0,60,0.00,,,0.00,meteohub,2013-01-18 14:36:00,
2013-01-18 09:41:00,5.4,-5.4,30.46,West,270,6.0,15.0,60,0.00,,,0.00,meteohub,2013-01-18 14:41:00,
2013-01-18 09:47:00,5.5,-5.6,30.46,West,281,8.0,15.0,59,0.00,,,0.00,meteohub,2013-01-18 14:47:00,
2013-01-18 09:52:00,5.7,-6.2,30.46,WNW,291,9.0,16.0,57,0.00,,,0.00,meteohub,2013-01-18 14:52:00,
2013-01-18 09:57:00,6.1,-6.3,30.47,WNW,292,11.0,16.0,56,0.00,,,0.00,meteohub,2013-01-18 14:57:00,
2013-01-18 10:02:00,6.1,-6.7,30.47,NW,320,5.0,16.0,55,0.00,,,0.00,meteohub,2013-01-18 15:02:00,
2013-01-18 10:07:00,6.3,-6.5,30.47,West,275,8.0,16.0,55,0.00,,,0.00,meteohub,2013-01-18 15:07:00,
2013-01-18 10:12:00,6.6,-6.2,30.47,West,263,6.0,18.0,55,0.00,,,0.00,meteohub,2013-01-18 15:12:00,
2013-01-18 10:17:00,7.0,-5.8,30.47,West,279,10.0,19.0,55,0.00,,,0.00,meteohub,2013-01-18 15:17:00,
2013-01-18 10:22:00,7.2,-5.6,30.48,WSW,248,14.0,19.0,55,0.00,,,0.00,meteohub,2013-01-18 15:22:00,
2013-01-18 10:27:00,7.2,-5.6,30.48,West,261,12.0,19.0,55,0.00,,,0.00,meteohub,2013-01-18 15:27:00,
2013-01-18 10:32:00,7.3,-5.4,30.48,WSW,242,11.0,18.0,55,0.00,,,0.00,meteohub,2013-01-18 15:32:00,
2013-01-18 10:37:00,7.5,-5.3,30.48,WNW,288,8.0,18.0,55,0.00,,,0.00,meteohub,2013-01-18 15:37:00,
2013-01-18 10:42:00,7.7,-5.1,30.48,West,269,14.0,19.0,55,0.00,,,0.00,meteohub,2013-01-18 15:42:00,
2013-01-18 10:47:00,7.9,-4.9,30.48,West,261,4.0,19.0,55,0.00,,,0.00,meteohub,2013-01-18 15:47:00,
2013-01-18 10:52:00,8.1,-4.7,30.48,West,278,12.0,19.0,55,0.00,,,0.00,meteohub,2013-01-18 15:52:00,
2013-01-18 10:57:00,8.1,-5.1,30.48,WNW,290,17.0,17.0,54,0.00,,,0.00,meteohub,2013-01-18 15:57:00,
2013-01-18 11:02:00,8.1,-4.7,30.48,West,261,11.0,18.0,55,0.00,,,0.00,meteohub,2013-01-18 16:02:00,
2013-01-18 11:07:00,8.4,-4.7,30.47,NNW,334,4.0,18.0,54,0.00,,,0.00,meteohub,2013-01-18 16:07:00,
2013-01-18 11:12:00,8.8,-4.0,30.47,NW,321,4.0,18.0,55,0.00,,,0.00,meteohub,2013-01-18 16:12:00,
2013-01-18 11:17:00,9.3,-4.0,30.47,WNW,300,6.0,15.0,54,0.00,,,0.00,meteohub,2013-01-18 16:17:00,
2013-01-18 11:21:00,9.3,-4.0,30.47,WNW,286,8.0,11.0,54,0.00,,,0.00,meteohub,2013-01-18 16:21:00,
2013-01-18 11:27:00,9.0,-4.7,30.46,NW,312,9.0,12.0,53,0.00,,,0.00,meteohub,2013-01-18 16:27:00,
2013-01-18 11:32:00,8.8,-4.5,30.46,WNW,294,9.0,18.0,54,0.00,,,0.00,meteohub,2013-01-18 16:32:00,
2013-01-18 11:37:00,9.1,-4.2,30.46,NW,315,5.0,18.0,54,0.00,,,0.00,meteohub,2013-01-18 16:37:00,
2013-01-18 11:42:00,9.7,-3.6,30.46,West,275,10.0,18.0,54,0.00,,,0.00,meteohub,2013-01-18 16:42:00,
2013-01-18 11:47:00,9.3,-4.0,30.46,NW,305,14.0,16.0,54,0.00,,,0.00,meteohub,2013-01-18 16:47:00,
2013-01-18 11:52:00,9.5,-3.8,30.46,WNW,292,13.0,18.0,54,0.00,,,0.00,meteohub,2013-01-18 16:52:00,
2013-01-18 11:57:00,10.0,-2.9,30.46,WNW,283,4.0,18.0,55,0.00,,,0.00,meteohub,2013-01-18 16:57:00,
2013-01-18 12:02:00,10.6,-2.7,30.46,NW,317,10.0,18.0,54,0.00,,,0.00,meteohub,2013-01-18 17:02:00,
2013-01-18 12:07:00,10.4,-3.3,30.46,West,269,3.0,13.0,53,0.00,,,0.00,meteohub,2013-01-18 17:07:00,
2013-01-18 12:12:00,10.2,-3.1,30.46,West,270,10.0,15.0,54,0.00,,,0.00,meteohub,2013-01-18 17:12:00,
2013-01-18 12:17:00,10.4,-2.9,30.46,West,277,10.0,16.0,54,0.00,,,0.00,meteohub,2013-01-18 17:17:00,
2013-01-18 12:22:00,10.6,-2.4,30.46,WSW,257,7.0,16.0,55,0.00,,,0.00,meteohub,2013-01-18 17:22:00,
2013-01-18 12:27:00,10.8,-2.2,30.46,WSW,248,11.0,20.0,55,0.00,,,0.00,meteohub,2013-01-18 17:27:00,
2013-01-18 12:32:00,10.9,-2.4,30.46,West,277,7.0,20.0,54,0.00,,,0.00,meteohub,2013-01-18 17:32:00,
2013-01-18 12:37:00,11.5,-1.5,30.46,WSW,252,7.0,20.0,55,0.00,,,0.00,meteohub,2013-01-18 17:37:00,
2013-01-18 12:42:00,11.7,-1.8,30.46,West,265,10.0,17.0,54,0.00,,,0.00,meteohub,2013-01-18 17:42:00,
2013-01-18 12:47:00,11.7,-1.8,30.46,West,261,5.0,17.0,54,0.00,,,0.00,meteohub,2013-01-18 17:47:00,
2013-01-18 12:52:00,12.2,-1.3,30.46,West,261,7.0,15.0,54,0.00,,,0.00,meteohub,2013-01-18 17:52:00,
2013-01-18 12:57:00,12.0,-1.8,30.46,West,265,11.0,15.0,53,0.00,,,0.00,meteohub,2013-01-18 17:57:00,
2013-01-18 13:02:00,11.8,-1.7,30.46,West,267,7.0,18.0,54,0.00,,,0.00,meteohub,2013-01-18 18:02:00,
2013-01-18 13:07:00,12.0,-1.5,30.46,West,265,10.0,22.0,54,0.00,,,0.00,meteohub,2013-01-18 18:07:00,
2013-01-18 13:12:00,12.6,-0.9,30.47,WSW,245,10.0,22.0,54,0.00,,,0.00,meteohub,2013-01-18 18:12:00,
2013-01-18 13:17:00,12.7,-1.5,30.47,West,265,5.0,22.0,52,0.00,,,0.00,meteohub,2013-01-18 18:17:00,
2013-01-18 13:22:00,12.7,-1.5,30.47,West,281,8.0,16.0,52,0.00,,,0.00,meteohub,2013-01-18 18:22:00,
2013-01-18 13:27:00,13.1,-0.8,30.47,SW,232,11.0,16.0,53,0.00,,,0.00,meteohub,2013-01-18 18:27:00,
2013-01-18 13:32:00,13.3,-1.1,30.48,WSW,246,10.0,16.0,52,0.00,,,0.00,meteohub,2013-01-18 18:32:00,
2013-01-18 13:37:00,13.1,-1.3,30.48,WSW,240,16.0,16.0,52,0.00,,,0.00,meteohub,2013-01-18 18:37:00,
2013-01-18 13:42:00,13.1,-0.8,30.48,West,259,7.0,16.0,53,0.00,,,0.00,meteohub,2013-01-18 18:42:00,
2013-01-18 13:47:00,13.3,-1.1,30.48,WSW,241,8.0,19.0,52,0.00,,,0.00,meteohub,2013-01-18 18:47:00,
2013-01-18 13:52:00,13.6,-1.1,30.48,WSW,257,13.0,19.0,51,0.00,,,0.00,meteohub,2013-01-18 18:52:00,
2013-01-18 13:57:00,13.5,-0.9,30.48,West,261,7.0,20.0,52,0.00,,,0.00,meteohub,2013-01-18 18:57:00,
2013-01-18 14:02:00,13.6,-0.8,30.49,WSW,246,9.0,20.0,52,0.00,,,0.00,meteohub,2013-01-18 19:02:00,
2013-01-18 14:07:00,13.8,-0.9,30.49,West,262,8.0,20.0,51,0.00,,,0.00,meteohub,2013-01-18 19:07:00,
2013-01-18 14:12:00,13.8,-0.9,30.49,West,267,6.0,15.0,51,0.00,,,0.00,meteohub,2013-01-18 19:12:00,
2013-01-18 14:17:00,14.2,0.1,30.49,SW,234,6.0,15.0,53,0.00,,,0.00,meteohub,2013-01-18 19:17:00,
2013-01-18 14:22:00,14.5,-0.2,30.49,SW,232,11.0,15.0,51,0.00,,,0.00,meteohub,2013-01-18 19:22:00,
2013-01-18 14:27:00,14.7,0.3,30.49,WSW,251,12.0,19.0,52,0.00,,,0.00,meteohub,2013-01-18 19:27:00,
2013-01-18 14:32:00,14.7,0.0,30.49,West,261,4.0,19.0,51,0.00,,,0.00,meteohub,2013-01-18 19:32:00,
2013-01-18 14:37:00,14.9,0.0,30.49,West,269,5.0,19.0,51,0.00,,,0.00,meteohub,2013-01-18 19:37:00,
2013-01-18 14:42:00,14.9,0.5,30.49,WNW,290,7.0,14.0,52,0.00,,,0.00,meteohub,2013-01-18 19:42:00,
2013-01-18 14:47:00,14.9,-0.4,30.49,West,272,7.0,14.0,50,0.00,,,0.00,meteohub,2013-01-18 19:47:00,
2013-01-18 14:52:00,15.1,-0.2,30.49,NW,309,7.0,14.0,50,0.00,,,0.00,meteohub,2013-01-18 19:52:00,
2013-01-18 14:57:00,15.1,0.1,30.49,SW,232,6.0,12.0,51,0.00,,,0.00,meteohub,2013-01-18 19:57:00,
2013-01-18 15:02:00,15.4,0.5,30.48,WSW,238,9.0,12.0,51,0.00,,,0.00,meteohub,2013-01-18 20:02:00,
2013-01-18 15:07:00,15.4,0.5,30.48,WSW,242,5.0,11.0,51,0.00,,,0.00,meteohub,2013-01-18 20:07:00,
2013-01-18 15:12:00,15.4,0.1,30.48,WSW,245,9.0,12.0,50,0.00,,,0.00,meteohub,2013-01-18 20:12:00,
2013-01-18 15:17:00,15.4,0.5,30.48,WSW,249,2.0,12.0,51,0.00,,,0.00,meteohub,2013-01-18 20:17:00,
2013-01-18 15:22:00,17.2,0.9,30.48,WSW,245,0.0,12.0,48,0.00,,,0.00,meteohub,2013-01-18 20:22:00,
2013-01-18 15:27:00,17.4,1.0,30.48,NW,323,3.0,11.0,48,0.00,,,0.00,meteohub,2013-01-18 20:27:00,
2013-01-18 15:32:00,17.2,0.9,30.49,NW,313,6.0,8.0,48,0.00,,,0.00,meteohub,2013-01-18 20:32:00,
2013-01-18 15:37:00,17.2,0.9,30.48,West,279,2.0,6.0,48,0.00,,,0.00,meteohub,2013-01-18 20:37:00,
2013-01-18 15:42:00,17.2,1.4,30.49,West,269,2.0,6.0,49,0.00,,,0.00,meteohub,2013-01-18 20:42:00,
2013-01-18 15:47:00,16.9,1.4,30.49,WSW,251,0.0,7.0,50,0.00,,,0.00,meteohub,2013-01-18 20:47:00,
2013-01-18 15:52:00,16.5,1.6,30.49,WSW,240,2.0,8.0,51,0.00,,,0.00,meteohub,2013-01-18 20:52:00,
2013-01-18 15:57:00,16.2,1.6,30.49,WSW,241,2.0,8.0,52,0.00,,,0.00,meteohub,2013-01-18 20:57:00,
2013-01-18 16:02:00,15.8,1.8,30.49,NNE,23,0.0,9.0,53,0.00,,,0.00,meteohub,2013-01-18 21:02:00,
2013-01-18 16:07:00,15.4,1.8,30.49,WSW,252,6.0,9.0,54,0.00,,,0.00,meteohub,2013-01-18 21:07:00,
2013-01-18 16:12:00,15.3,1.9,30.50,WNW,286,4.0,9.0,55,0.00,,,0.00,meteohub,2013-01-18 21:12:00,
2013-01-18 16:17:00,14.9,2.1,30.50,WSW,252,0.0,7.0,56,0.00,,,0.00,meteohub,2013-01-18 21:17:00,
2013-01-18 16:22:00,14.7,2.7,30.49,NW,315,0.0,7.0,58,0.00,,,0.00,meteohub,2013-01-18 21:22:00,
2013-01-18 16:27:00,14.5,2.8,30.49,WNW,301,0.0,6.0,59,0.00,,,0.00,meteohub,2013-01-18 21:27:00,
2013-01-18 16:32:00,14.5,3.2,30.49,NNW,329,5.0,7.0,60,0.00,,,0.00,meteohub,2013-01-18 21:32:00,
2013-01-18 16:38:00,14.4,3.0,30.49,WNW,284,0.0,7.0,60,0.00,,,0.00,meteohub,2013-01-18 21:38:00,
2013-01-18 16:43:00,14.4,3.0,30.50,WSW,254,0.0,7.0,60,0.00,,,0.00,meteohub,2013-01-18 21:43:00,
2013-01-18 16:48:00,14.2,3.2,30.50,WSW,242,1.0,7.0,61,0.00,,,0.00,meteohub,2013-01-18 21:48:00,
2013-01-18 16:53:00,14.2,3.6,30.50,West,265,3.0,7.0,62,0.00,,,0.00,meteohub,2013-01-18 21:53:00,
2013-01-18 16:58:00,14.2,3.6,30.50,WSW,244,0.0,12.0,62,0.00,,,0.00,meteohub,2013-01-18 21:58:00,
2013-01-18 17:03:00,14.0,3.7,30.51,West,281,11.0,12.0,63,0.00,,,0.00,meteohub,2013-01-18 22:03:00,
2013-01-18 17:08:00,14.2,3.9,30.51,WSW,244,3.0,12.0,63,0.00,,,0.00,meteohub,2013-01-18 22:08:00,
2013-01-18 17:13:00,14.0,3.7,30.51,WSW,250,9.0,12.0,63,0.00,,,0.00,meteohub,2013-01-18 22:13:00,
2013-01-18 17:18:00,14.0,4.1,30.51,SW,235,7.0,12.0,64,0.00,,,0.00,meteohub,2013-01-18 22:18:00,
2013-01-18 17:23:00,14.2,4.3,30.51,West,277,2.0,12.0,64,0.00,,,0.00,meteohub,2013-01-18 22:23:00,
2013-01-18 17:28:00,14.0,4.1,30.51,NW,315,3.0,10.0,64,0.00,,,0.00,meteohub,2013-01-18 22:28:00,
2013-01-18 17:33:00,13.8,4.3,30.51,WSW,239,6.0,13.0,65,0.00,,,0.00,meteohub,2013-01-18 22:33:00,
2013-01-18 17:38:00,13.8,4.3,30.51,WSW,244,5.0,13.0,65,0.00,,,0.00,meteohub,2013-01-18 22:38:00,
2013-01-18 17:43:00,13.6,4.5,30.52,SW,231,3.0,14.0,66,0.00,,,0.00,meteohub,2013-01-18 22:43:00,
2013-01-18 17:48:00,13.6,4.5,30.51,SW,217,4.0,14.0,66,0.00,,,0.00,meteohub,2013-01-18 22:48:00,
2013-01-18 17:53:00,13.5,4.6,30.51,WSW,252,6.0,8.0,67,0.00,,,0.00,meteohub,2013-01-18 22:53:00,
2013-01-18 17:58:00,13.5,4.6,30.51,West,272,8.0,9.0,67,0.00,,,0.00,meteohub,2013-01-18 22:58:00,
2013-01-18 18:03:00,13.5,4.6,30.51,NNW,330,1.0,9.0,67,0.00,,,0.00,meteohub,2013-01-18 23:03:00,
2013-01-18 18:08:00,13.5,4.6,30.51,WSW,238,2.0,11.0,67,0.00,,,0.00,meteohub,2013-01-18 23:08:00,
2013-01-18 18:13:00,13.5,4.6,30.51,West,268,1.0,11.0,67,0.00,,,0.00,meteohub,2013-01-18 23:13:00,
2013-01-18 18:18:00,13.5,4.8,30.51,SW,236,2.0,6.0,68,0.00,,,0.00,meteohub,2013-01-18 23:18:00,
2013-01-18 18:23:00,13.5,4.8,30.51,West,267,1.0,9.0,68,0.00,,,0.00,meteohub,2013-01-18 23:23:00,
2013-01-18 18:28:00,13.5,4.8,30.51,West,273,7.0,9.0,68,0.00,,,0.00,meteohub,2013-01-18 23:28:00,
2013-01-18 18:33:00,13.6,5.0,30.51,WNW,301,8.0,9.0,68,0.00,,,0.00,meteohub,2013-01-18 23:33:00,
2013-01-18 18:38:00,13.6,5.0,30.51,SW,227,1.0,10.0,68,0.00,,,0.00,meteohub,2013-01-18 23:38:00,
2013-01-18 18:43:00,13.6,5.0,30.52,West,265,2.0,10.0,68,0.00,,,0.00,meteohub,2013-01-18 23:43:00,
2013-01-18 18:48:00,13.8,4.8,30.52,NW,311,3.0,10.0,67,0.00,,,0.00,meteohub,2013-01-18 23:48:00,
2013-01-18 18:53:00,13.8,4.8,30.51,West,267,4.0,10.0,67,0.00,,,0.00,meteohub,2013-01-18 23:53:00,
2013-01-18 18:58:00,13.8,4.8,30.51,WSW,240,7.0,12.0,67,0.00,,,0.00,meteohub,2013-01-18 23:58:00,
2013-01-18 19:03:00,13.8,4.8,30.51,West,265,8.0,12.0,67,0.00,,,0.00,meteohub,2013-01-19 00:03:00,
2013-01-18 19:08:00,14.0,5.4,30.52,WNW,297,1.0,12.0,68,0.00,,,0.00,meteohub,2013-01-19 00:08:00,
2013-01-18 19:13:00,14.0,5.4,30.51,WSW,253,7.0,9.0,68,0.00,,,0.00,meteohub,2013-01-19 00:13:00,
2013-01-18 19:18:00,14.2,5.2,30.51,WNW,300,1.0,11.0,67,0.00,,,0.00,meteohub,2013-01-19 00:18:00,
2013-01-18 19:23:00,14.2,5.2,30.51,West,273,2.0,11.0,67,0.00,,,0.00,meteohub,2013-01-19 00:23:00,
2013-01-18 19:28:00,14.0,5.0,30.51,WNW,292,2.0,11.0,67,0.00,,,0.00,meteohub,2013-01-19 00:28:00,
2013-01-18 19:33:00,14.2,5.2,30.51,SW,233,1.0,11.0,67,0.00,,,0.00,meteohub,2013-01-19 00:33:00,
2013-01-18 19:38:00,14.2,5.2,30.51,WSW,254,7.0,12.0,67,0.00,,,0.00,meteohub,2013-01-19 00:38:00,
2013-01-18 19:44:00,14.2,5.2,30.51,WSW,254,2.0,12.0,67,0.00,,,0.00,meteohub,2013-01-19 00:44:00,
2013-01-18 19:49:00,14.4,5.0,30.51,West,259,1.0,12.0,66,0.00,,,0.00,meteohub,2013-01-19 00:49:00,
2013-01-18 19:54:00,14.5,5.2,30.50,West,281,3.0,10.0,66,0.00,,,0.00,meteohub,2013-01-19 00:54:00,
2013-01-18 19:59:00,14.5,5.2,30.50,WNW,302,1.0,10.0,66,0.00,,,0.00,meteohub,2013-01-19 00:59:00,
2013-01-18 20:04:00,14.5,5.5,30.50,WSW,254,4.0,10.0,67,0.00,,,0.00,meteohub,2013-01-19 01:04:00,
2013-01-18 20:09:00,14.7,5.7,30.50,West,280,6.0,8.0,67,0.00,,,0.00,meteohub,2013-01-19 01:09:00,
2013-01-18 20:14:00,14.9,5.9,30.50,West,259,6.0,8.0,67,0.00,,,0.00,meteohub,2013-01-19 01:14:00,
2013-01-18 20:19:00,15.1,5.7,30.50,West,279,2.0,8.0,66,0.00,,,0.00,meteohub,2013-01-19 01:19:00,
2013-01-18 20:24:00,15.1,5.7,30.50,West,261,0.0,9.0,66,0.00,,,0.00,meteohub,2013-01-19 01:24:00,
2013-01-18 20:29:00,14.7,5.4,30.50,WSW,253,0.0,9.0,66,0.00,,,0.00,meteohub,2013-01-19 01:29:00,
2013-01-18 20:34:00,14.7,5.7,30.51,WNW,282,1.0,9.0,67,0.00,,,0.00,meteohub,2013-01-19 01:34:00,
2013-01-18 20:39:00,14.7,5.7,30.50,West,266,2.0,7.0,67,0.00,,,0.00,meteohub,2013-01-19 01:39:00,
2013-01-18 20:44:00,14.7,6.1,30.50,WSW,237,6.0,7.0,68,0.00,,,0.00,meteohub,2013-01-19 01:44:00,
2013-01-18 20:49:00,14.7,6.1,30.50,WSW,255,2.0,7.0,68,0.00,,,0.00,meteohub,2013-01-19 01:49:00,
2013-01-18 20:54:00,14.9,6.6,30.51,SW,232,0.0,6.0,69,0.00,,,0.00,meteohub,2013-01-19 01:54:00,
2013-01-18 20:59:00,15.1,6.8,30.50,WSW,240,2.0,6.0,69,0.00,,,0.00,meteohub,2013-01-19 01:59:00,
2013-01-18 21:04:00,15.3,7.0,30.50,WSW,237,4.0,8.0,69,0.00,,,0.00,meteohub,2013-01-19 02:04:00,
2013-01-18 21:09:00,15.4,7.2,30.50,WSW,243,5.0,8.0,69,0.00,,,0.00,meteohub,2013-01-19 02:09:00,
2013-01-18 21:14:00,15.8,7.5,30.49,SW,235,1.0,8.0,69,0.00,,,0.00,meteohub,2013-01-19 02:14:00,
2013-01-18 21:19:00,15.8,7.5,30.49,WSW,252,4.0,10.0,69,0.00,,,0.00,meteohub,2013-01-19 02:19:00,
2013-01-18 21:24:00,15.8,7.2,30.49,WSW,244,4.0,10.0,68,0.00,,,0.00,meteohub,2013-01-19 02:24:00,
2013-01-18 21:29:00,15.8,7.2,30.49,WNW,302,2.0,10.0,68,0.00,,,0.00,meteohub,2013-01-19 02:29:00,
2013-01-18 21:34:00,16.0,7.3,30.48,WSW,248,2.0,9.0,68,0.00,,,0.00,meteohub,2013-01-19 02:34:00,
2013-01-18 21:39:00,16.2,7.2,30.48,WSW,255,4.0,11.0,67,0.00,,,0.00,meteohub,2013-01-19 02:39:00,
2013-01-18 21:44:00,16.2,6.8,30.48,SW,231,3.0,11.0,66,0.00,,,0.00,meteohub,2013-01-19 02:44:00,
2013-01-18 21:49:00,16.0,6.6,30.48,WSW,254,3.0,11.0,66,0.00,,,0.00,meteohub,2013-01-19 02:49:00,
2013-01-18 21:54:00,15.6,6.3,30.48,SW,235,0.0,9.0,66,0.00,,,0.00,meteohub,2013-01-19 02:54:00,
2013-01-18 21:59:00,15.4,6.4,30.48,SSW,202,7.0,8.0,67,0.00,,,0.00,meteohub,2013-01-19 02:59:00,
2013-01-18 22:04:00,16.2,6.8,30.47,WNW,294,5.0,13.0,66,0.00,,,0.00,meteohub,2013-01-19 03:04:00,
2013-01-18 22:09:00,16.2,6.8,30.47,SW,220,1.0,13.0,66,0.00,,,0.00,meteohub,2013-01-19 03:09:00,
2013-01-18 22:15:00,16.2,6.8,30.46,SSW,200,6.0,13.0,66,0.00,,,0.00,meteohub,2013-01-19 03:15:00,
2013-01-18 22:20:00,16.2,6.8,30.46,SSW,205,1.0,8.0,66,0.00,,,0.00,meteohub,2013-01-19 03:20:00,
2013-01-18 22:25:00,16.0,6.6,30.46,SW,229,0.0,16.0,66,0.00,,,0.00,meteohub,2013-01-19 03:25:00,
2013-01-18 22:30:00,16.0,6.6,30.45,WNW,288,3.0,16.0,66,0.00,,,0.00,meteohub,2013-01-19 03:30:00,
2013-01-18 22:35:00,16.3,7.0,30.46,SSW,211,5.0,10.0,66,0.00,,,0.00,meteohub,2013-01-19 03:35:00,
2013-01-18 22:40:00,16.3,7.0,30.45,WNW,283,0.0,8.0,66,0.00,,,0.00,meteohub,2013-01-19 03:40:00,
2013-01-18 22:45:00,17.1,7.0,30.45,WSW,258,4.0,10.0,64,0.00,,,0.00,meteohub,2013-01-19 03:45:00,
2013-01-18 22:50:00,17.6,7.2,30.44,SW,229,4.0,11.0,63,0.00,,,0.00,meteohub,2013-01-19 03:50:00,
2013-01-18 22:55:00,17.4,7.7,30.44,SW,219,3.0,11.0,65,0.00,,,0.00,meteohub,2013-01-19 03:55:00,
2013-01-18 23:00:00,17.1,7.3,30.44,SW,226,1.0,11.0,65,0.00,,,0.00,meteohub,2013-01-19 04:00:00,
2013-01-18 23:05:00,16.9,7.5,30.44,SE,136,2.0,7.0,66,0.00,,,0.00,meteohub,2013-01-19 04:05:00,
2013-01-18 23:10:00,16.9,7.2,30.43,SW,221,0.0,10.0,65,0.00,,,0.00,meteohub,2013-01-19 04:10:00,
2013-01-18 23:15:00,17.6,7.5,30.43,SSW,200,3.0,10.0,64,0.00,,,0.00,meteohub,2013-01-19 04:15:00,
2013-01-18 23:20:00,18.1,7.7,30.43,SW,220,4.0,10.0,63,0.00,,,0.00,meteohub,2013-01-19 04:20:00,
2013-01-18 23:25:00,18.5,7.7,30.42,West,260,1.0,10.0,62,0.00,,,0.00,meteohub,2013-01-19 04:25:00,
2013-01-18 23:30:00,18.9,7.7,30.42,WSW,242,4.0,10.0,61,0.00,,,0.00,meteohub,2013-01-19 04:30:00,
2013-01-18 23:35:00,19.0,7.9,30.41,SW,231,3.0,10.0,61,0.00,,,0.00,meteohub,2013-01-19 04:35:00,
2013-01-18 23:40:00,19.0,7.9,30.41,SW,215,2.0,10.0,61,0.00,,,0.00,meteohub,2013-01-19 04:40:00,
2013-01-18 23:45:00,18.3,7.9,30.41,SW,217,1.0,10.0,63,0.00,,,0.00,meteohub,2013-01-19 04:45:00,
2013-01-18 23:50:00,18.0,7.9,30.41,SW,217,0.0,7.0,64,0.00,,,0.00,meteohub,2013-01-19 04:50:00,
2013-01-18 23:55:00,17.8,7.7,30.41,SW,217,2.0,4.0,64,0.00,,,0.00,meteohub,2013-01-19 04:55:00,